Time;durP1;ratioP1;P1;durP2;ratioP2;P2;SDS_P1;SDS_P2;PMS_P1;PMS_P2;Temp;Humidity;BMP_temperature;BMP_pressure;BME280_temperature;BME280_humidity;BME280_pressure;Samples;Min_cycle;Max_cycle;Signal;HPM_P1;HPM_P2
2022/03/03 00:01:59;;;;;;;10.75;5.80;;;1.40;49.40;;;;;;5097755;28;20032;-78
2022/03/03 00:04:25;;;;;;;11.32;6.15;;;1.30;49.50;;;;;;5111464;28;20067;-78
2022/03/03 00:06:51;;;;;;;11.27;6.13;;;1.30;49.50;;;;;;5115417;28;20446;-80
2022/03/03 00:09:17;;;;;;;17.52;5.93;;;1.20;49.50;;;;;;5093850;28;20020;-78
2022/03/03 00:11:42;;;;;;;14.90;6.13;;;1.20;49.70;;;;;;5099066;28;20076;-79
2022/03/03 00:14:08;;;;;;;14.07;7.25;;;1.20;50.10;;;;;;5115107;28;20520;-78
2022/03/03 00:16:34;;;;;;;11.65;5.75;;;1.20;50.50;;;;;;5098273;28;20027;-80
2022/03/03 00:19:00;;;;;;;15.20;6.07;;;1.10;50.50;;;;;;5116094;28;20031;-79
2022/03/03 00:21:25;;;;;;;10.25;6.50;;;1.10;51.30;;;;;;5115651;28;20032;-80
2022/03/03 00:23:51;;;;;;;13.05;6.28;;;1.10;50.80;;;;;;5115131;28;20419;-78
2022/03/03 00:26:17;;;;;;;13.60;6.20;;;1.10;50.80;;;;;;5120102;28;20047;-79
2022/03/03 00:28:43;;;;;;;11.98;5.05;;;1.10;50.70;;;;;;5118230;28;20059;-80
2022/03/03 00:31:09;;;;;;;14.80;6.32;;;1.10;50.80;;;;;;5098600;28;20024;-77
2022/03/03 00:33:35;;;;;;;9.38;5.18;;;1.10;51.10;;;;;;5095164;28;20026;-77
2022/03/03 00:36:00;;;;;;;12.60;5.78;;;1.00;51.00;;;;;;5095141;28;20032;-78
2022/03/03 00:38:26;;;;;;;11.75;7.55;;;1.00;51.00;;;;;;5094585;28;20073;-79
2022/03/03 00:40:52;;;;;;;13.45;6.32;;;1.00;51.20;;;;;;5094013;28;20115;-76
2022/03/03 00:43:19;;;;;;;14.82;6.28;;;1.00;51.40;;;;;;5105430;28;20035;-77
2022/03/03 00:45:45;;;;;;;9.57;6.15;;;1.00;51.30;;;;;;5115415;28;20020;-77
2022/03/03 00:48:11;;;;;;;12.98;6.03;;;1.00;51.20;;;;;;5113930;28;20023;-78
2022/03/03 00:50:37;;;;;;;20.10;6.72;;;1.00;51.10;;;;;;5096279;28;20054;-77
2022/03/03 00:53:03;;;;;;;10.32;5.30;;;1.00;51.10;;;;;;5114703;28;20094;-78
2022/03/03 00:55:29;;;;;;;11.88;7.60;;;1.00;51.00;;;;;;5096299;28;20032;-77
2022/03/03 00:57:54;;;;;;;13.70;6.35;;;1.00;51.10;;;;;;5114331;28;20045;-77
2022/03/03 01:00:21;;;;;;;13.23;5.95;;;1.00;51.30;;;;;;5114279;28;20110;-77
2022/03/03 01:02:48;;;;;;;10.27;6.55;;;0.90;51.20;;;;;;5115523;28;20481;-77
2022/03/03 01:05:14;;;;;;;12.48;6.05;;;0.90;51.30;;;;;;5114873;28;20020;-78
2022/03/03 01:07:40;;;;;;;11.90;5.47;;;0.90;51.30;;;;;;5115948;28;20050;-77
2022/03/03 01:10:07;;;;;;;12.00;5.82;;;0.90;51.40;;;;;;5098372;28;20031;-77
2022/03/03 01:12:34;;;;;;;14.50;7.07;;;0.80;51.50;;;;;;5115093;28;20047;-77
2022/03/03 01:14:59;;;;;;;11.13;6.25;;;0.80;51.70;;;;;;5114940;28;20019;-78
2022/03/03 01:17:25;;;;;;;8.27;5.63;;;0.80;51.80;;;;;;5114093;28;20442;-77
2022/03/03 01:19:51;;;;;;;9.95;6.05;;;0.70;51.80;;;;;;5113846;28;20048;-75
2022/03/03 01:22:17;;;;;;;10.80;5.25;;;0.70;51.90;;;;;;5113719;28;20027;-76
2022/03/03 01:24:45;;;;;;;11.05;5.68;;;0.70;52.00;;;;;;5113783;28;20016;-77
2022/03/03 01:27:11;;;;;;;7.63;5.43;;;0.70;52.20;;;;;;5113713;28;20024;-79
2022/03/03 01:29:38;;;;;;;12.38;5.75;;;0.60;52.40;;;;;;5114139;28;20020;-77
2022/03/03 01:32:05;;;;;;;8.20;5.32;;;0.60;52.50;;;;;;5095300;28;20081;-77
2022/03/03 01:34:31;;;;;;;17.83;6.60;;;0.60;52.60;;;;;;5094924;28;20023;-76
2022/03/03 01:36:57;;;;;;;10.55;5.68;;;0.60;52.60;;;;;;5113513;28;20435;-78
2022/03/03 01:39:23;;;;;;;10.45;5.95;;;0.60;52.70;;;;;;5113798;28;20384;-77
2022/03/03 01:41:48;;;;;;;17.00;6.35;;;0.60;52.70;;;;;;5113441;28;20031;-78
2022/03/03 01:44:14;;;;;;;12.13;5.53;;;0.60;52.70;;;;;;5113198;28;20073;-77
2022/03/03 01:46:51;;;;;;;15.75;6.32;;;0.60;52.70;;;;;;5095032;28;20032;-76
2022/03/03 01:49:17;;;;;;;10.88;6.47;;;0.60;52.80;;;;;;5113291;28;20391;-77
2022/03/03 01:51:43;;;;;;;15.88;7.15;;;0.60;52.70;;;;;;5113280;28;20146;-77
2022/03/03 01:54:08;;;;;;;15.15;6.78;;;0.60;52.90;;;;;;5094792;28;20152;-76
2022/03/03 01:56:35;;;;;;;10.48;6.18;;;0.50;53.00;;;;;;5113092;28;20073;-77
2022/03/03 01:59:02;;;;;;;13.00;5.82;;;0.50;53.10;;;;;;5113014;28;20112;-77
2022/03/03 02:01:31;;;;;;;8.70;5.30;;;0.40;53.20;;;;;;5113028;28;20038;-78
2022/03/03 02:03:57;;;;;;;11.95;6.70;;;0.40;53.40;;;;;;5113054;28;20127;-77
2022/03/03 02:06:24;;;;;;;10.25;5.28;;;0.40;53.50;;;;;;5112956;28;20101;-78
2022/03/03 02:08:53;;;;;;;15.45;6.22;;;0.30;53.40;;;;;;5113339;28;20028;-77
2022/03/03 02:11:20;;;;;;;14.50;6.88;;;0.30;53.40;;;;;;5112845;28;20055;-77
2022/03/03 02:13:46;;;;;;;11.70;5.68;;;0.30;53.40;;;;;;5094559;28;20412;-78
2022/03/03 02:16:13;;;;;;;13.43;7.00;;;0.30;53.40;;;;;;5112949;28;20046;-79
2022/03/03 02:18:40;;;;;;;10.32;6.03;;;0.20;53.50;;;;;;5114624;28;20087;-78
2022/03/03 02:21:09;;;;;;;9.68;6.15;;;0.20;53.70;;;;;;5115080;28;20078;-79
2022/03/03 02:23:35;;;;;;;8.75;5.75;;;0.20;53.80;;;;;;5113308;28;20520;-77
2022/03/03 02:26:01;;;;;;;10.95;6.93;;;0.20;54.00;;;;;;5112953;28;20023;-78
2022/03/03 02:28:26;;;;;;;14.45;6.70;;;0.10;54.20;;;;;;5112808;28;20094;-77
2022/03/03 02:30:52;;;;;;;13.57;7.30;;;0.10;54.60;;;;;;5112662;28;20051;-77
2022/03/03 02:33:18;;;;;;;12.40;6.35;;;0.10;54.90;;;;;;5112629;28;20068;-77
2022/03/03 02:35:44;;;;;;;17.02;7.70;;;0.10;55.00;;;;;;5113196;28;20059;-77
2022/03/03 02:38:10;;;;;;;13.75;6.72;;;0.10;55.20;;;;;;5112443;28;20047;-78
2022/03/03 02:40:35;;;;;;;10.48;6.88;;;0.10;55.10;;;;;;5112752;28;20040;-78
2022/03/03 02:43:01;;;;;;;12.43;6.03;;;0.00;55.00;;;;;;5110886;28;20031;-76
2022/03/03 02:45:27;;;;;;;11.73;6.70;;;0.00;55.10;;;;;;5112804;28;20111;-79
2022/03/03 02:47:53;;;;;;;11.85;7.25;;;0.00;55.10;;;;;;5112263;28;20052;-77
2022/03/03 02:50:28;;;;;;;13.32;6.65;;;0.00;55.10;;;;;;5094492;28;20079;-78
2022/03/03 02:52:54;;;;;;;12.75;6.70;;;0.00;55.10;;;;;;5112606;28;20027;-76
2022/03/03 02:55:20;;;;;;;15.43;7.03;;;0.00;55.10;;;;;;5094384;28;20042;-78
2022/03/03 02:57:55;;;;;;;12.60;6.13;;;0.00;55.30;;;;;;5112235;28;20019;-76
2022/03/03 03:00:27;;;;;;;13.23;6.65;;;0.00;55.30;;;;;;5112291;28;20027;-78
2022/03/03 03:02:53;;;;;;;18.08;6.82;;;0.00;55.40;;;;;;5112474;28;20027;-78
2022/03/03 03:05:19;;;;;;;10.60;6.90;;;0.00;55.30;;;;;;5112443;28;20042;-78
2022/03/03 03:07:45;;;;;;;16.75;6.35;;;0.00;55.40;;;;;;5112281;28;20028;-76
2022/03/03 03:10:11;;;;;;;14.35;7.47;;;0.00;55.40;;;;;;5112178;28;20392;-77
2022/03/03 03:12:36;;;;;;;13.05;6.20;;;0.00;55.50;;;;;;5112110;28;20051;-77
2022/03/03 03:15:03;;;;;;;13.82;7.45;;;0.00;55.60;;;;;;5112195;28;20026;-77
2022/03/03 03:17:29;;;;;;;12.93;5.45;;;0.00;55.70;;;;;;5112372;28;20419;-77
2022/03/03 03:19:55;;;;;;;10.55;6.07;;;0.00;55.60;;;;;;5112123;28;20024;-77
2022/03/03 03:22:20;;;;;;;12.07;6.53;;;0.00;55.90;;;;;;5113597;28;20057;-78
2022/03/03 03:24:46;;;;;;;10.40;6.40;;;0.00;56.20;;;;;;5115823;28;20020;-78
2022/03/03 03:27:12;;;;;;;17.13;7.93;;;-0.10;56.30;;;;;;5113500;28;20426;-76
2022/03/03 03:29:37;;;;;;;12.48;7.32;;;-0.10;56.70;;;;;;5112770;28;20111;-78
2022/03/03 03:32:03;;;;;;;21.00;7.22;;;-0.10;56.80;;;;;;5112601;28;20072;-77
2022/03/03 03:34:29;;;;;;;17.88;8.45;;;-0.20;56.90;;;;;;5112624;28;20012;-77
2022/03/03 03:36:55;;;;;;;19.92;8.52;;;-0.20;57.20;;;;;;5112444;28;20024;-77
2022/03/03 03:39:21;;;;;;;16.83;6.80;;;-0.20;57.50;;;;;;5112490;28;20513;-77
2022/03/03 03:41:47;;;;;;;19.10;7.32;;;-0.20;57.70;;;;;;5112207;28;20392;-77
2022/03/03 03:44:13;;;;;;;31.77;7.40;;;-0.20;57.80;;;;;;5111999;28;20027;-77
2022/03/03 03:46:39;;;;;;;15.52;7.90;;;-0.20;57.90;;;;;;5095038;28;20384;-79
2022/03/03 03:49:08;;;;;;;10.70;7.50;;;-0.20;57.90;;;;;;5073683;28;20025;-78
2022/03/03 03:51:34;;;;;;;20.10;8.05;;;-0.30;57.80;;;;;;5091408;28;20384;-78
2022/03/03 03:53:59;;;;;;;16.15;7.40;;;-0.30;57.90;;;;;;5091701;28;20016;-81
2022/03/03 03:56:25;;;;;;;11.82;6.63;;;-0.30;58.10;;;;;;5103989;28;20020;-78
2022/03/03 03:58:51;;;;;;;10.75;6.15;;;-0.30;58.20;;;;;;5114662;28;20034;-79
2022/03/03 04:01:17;;;;;;;13.95;6.80;;;-0.30;58.30;;;;;;5116103;28;20026;-80
2022/03/03 04:03:43;;;;;;;14.18;6.60;;;-0.30;58.20;;;;;;5115950;28;20388;-77
2022/03/03 04:06:09;;;;;;;10.63;6.32;;;-0.30;58.10;;;;;;5115303;28;20019;-77
2022/03/03 04:08:35;;;;;;;13.88;7.25;;;-0.30;58.00;;;;;;5116086;28;20081;-81
2022/03/03 04:11:02;;;;;;;17.08;8.90;;;-0.30;58.10;;;;;;5115577;28;20047;-78
2022/03/03 04:13:28;;;;;;;17.77;7.68;;;-0.40;58.10;;;;;;5115877;28;20023;-77
2022/03/03 04:15:54;;;;;;;18.92;6.93;;;-0.40;58.10;;;;;;5117320;28;20099;-77
2022/03/03 04:18:20;;;;;;;17.45;7.53;;;-0.40;58.10;;;;;;5115245;28;20180;-77
2022/03/03 04:20:46;;;;;;;16.45;6.90;;;-0.40;58.00;;;;;;5087365;28;20032;-78
2022/03/03 04:23:12;;;;;;;15.23;7.03;;;-0.30;58.00;;;;;;5094623;28;20028;-78
2022/03/03 04:25:37;;;;;;;15.38;6.80;;;-0.30;58.00;;;;;;5094940;28;20028;-79
2022/03/03 04:28:04;;;;;;;16.27;9.27;;;-0.30;58.20;;;;;;5096048;28;20501;-79
2022/03/03 04:30:30;;;;;;;17.43;8.23;;;-0.30;58.60;;;;;;5077912;28;20158;-78
2022/03/03 04:32:56;;;;;;;14.20;7.95;;;-0.30;59.00;;;;;;5076426;28;20104;-77
2022/03/03 04:35:22;;;;;;;15.60;6.63;;;-0.30;59.20;;;;;;5076197;28;20078;-79
2022/03/03 04:37:48;;;;;;;16.10;7.28;;;-0.40;59.30;;;;;;5106160;28;20024;-79
2022/03/03 04:40:14;;;;;;;18.38;7.88;;;-0.40;59.50;;;;;;5114480;28;20392;-79
2022/03/03 04:42:39;;;;;;;15.13;7.38;;;-0.40;59.60;;;;;;5113384;28;20340;-78
2022/03/03 04:45:06;;;;;;;12.60;6.40;;;-0.40;59.70;;;;;;5114786;28;20023;-79
2022/03/03 04:47:31;;;;;;;14.07;7.38;;;-0.40;59.80;;;;;;5115021;28;20062;-79
2022/03/03 04:49:57;;;;;;;17.85;7.95;;;-0.40;59.90;;;;;;5114807;28;20051;-80
2022/03/03 04:52:23;;;;;;;13.57;7.72;;;-0.50;60.00;;;;;;5114623;28;20019;-77
2022/03/03 04:54:49;;;;;;;17.35;8.57;;;-0.50;60.10;;;;;;5113241;28;20434;-80
2022/03/03 04:57:17;;;;;;;15.63;7.40;;;-0.50;60.20;;;;;;5114261;28;20080;-79
2022/03/03 04:59:43;;;;;;;15.65;6.80;;;-0.50;60.20;;;;;;5114677;28;20422;-78
2022/03/03 05:02:09;;;;;;;15.73;6.75;;;-0.50;60.00;;;;;;5114464;28;20035;-80
2022/03/03 05:04:34;;;;;;;15.57;7.00;;;-0.50;60.10;;;;;;5114295;28;20100;-81
2022/03/03 05:07:00;;;;;;;20.08;8.25;;;-0.50;60.00;;;;;;5114338;28;20024;-80
2022/03/03 05:09:26;;;;;;;15.90;6.97;;;-0.50;60.00;;;;;;5113861;28;20028;-80
2022/03/03 05:11:52;;;;;;;17.52;8.18;;;-0.50;60.00;;;;;;5114567;28;20051;-78
2022/03/03 05:14:17;;;;;;;13.30;7.90;;;-0.50;60.00;;;;;;5114712;28;20220;-80
2022/03/03 05:16:43;;;;;;;14.30;8.13;;;-0.50;60.00;;;;;;5114183;28;20027;-79
2022/03/03 05:19:09;;;;;;;17.25;9.23;;;-0.50;60.10;;;;;;5114161;28;20015;-80
2022/03/03 05:21:35;;;;;;;19.85;8.55;;;-0.40;60.10;;;;;;5095959;28;20035;-80
2022/03/03 05:24:00;;;;;;;19.05;8.70;;;-0.40;60.10;;;;;;5114362;28;20492;-78
2022/03/03 05:26:26;;;;;;;23.20;9.32;;;-0.30;60.10;;;;;;5114421;28;20028;-78
2022/03/03 05:28:52;;;;;;;16.17;8.65;;;-0.30;60.00;;;;;;5095966;28;20015;-81
2022/03/03 05:31:18;;;;;;;19.25;8.77;;;-0.20;60.00;;;;;;5114129;28;20480;-79
2022/03/03 05:33:44;;;;;;;15.27;7.68;;;-0.20;60.00;;;;;;5113958;28;20024;-78
2022/03/03 05:36:11;;;;;;;23.17;10.85;;;-0.10;60.00;;;;;;5114504;28;20030;-80
2022/03/03 05:38:37;;;;;;;17.17;7.78;;;-0.10;59.90;;;;;;5121126;28;20023;-80
2022/03/03 05:41:05;;;;;;;21.08;9.02;;;-0.10;59.60;;;;;;5117135;28;20388;-83
2022/03/03 05:43:31;;;;;;;20.05;7.03;;;-0.10;59.20;;;;;;5114805;28;20016;-80
2022/03/03 05:45:57;;;;;;;15.70;6.40;;;0.00;58.90;;;;;;5103225;28;20050;-81
2022/03/03 05:48:27;;;;;;;14.07;7.47;;;0.10;58.80;;;;;;5093247;28;20027;-81
2022/03/03 05:50:55;;;;;;;17.33;8.02;;;0.10;58.60;;;;;;5093822;28;20024;-80
2022/03/03 05:53:25;;;;;;;16.48;8.23;;;0.20;58.60;;;;;;5102498;28;20460;-80
2022/03/03 05:55:56;;;;;;;24.85;8.18;;;0.20;58.50;;;;;;5112891;28;20885;-81
2022/03/03 05:58:25;;;;;;;27.00;7.97;;;0.20;58.40;;;;;;5113094;28;20011;-78
2022/03/03 06:00:54;;;;;;;25.30;7.97;;;0.40;58.20;;;;;;5112846;28;20034;-77
2022/03/03 06:03:21;;;;;;;25.25;8.68;;;0.50;58.10;;;;;;5113184;28;20103;-79
2022/03/03 06:05:53;;;;;;;24.60;7.40;;;0.60;58.00;;;;;;5097077;28;20028;-80
2022/03/03 06:08:31;;;;;;;21.52;7.65;;;0.70;57.90;;;;;;5116875;28;20031;-78
2022/03/03 06:11:01;;;;;;;22.40;8.38;;;0.80;57.60;;;;;;5116126;28;20115;-80
2022/03/03 06:13:35;;;;;;;26.10;7.55;;;0.80;57.50;;;;;;5113206;28;20349;-77
2022/03/03 06:16:03;;;;;;;23.88;7.28;;;0.80;57.50;;;;;;5113304;28;20083;-80
2022/03/03 06:18:32;;;;;;;19.17;7.65;;;0.80;57.50;;;;;;5113578;28;20031;-79
2022/03/03 06:20:59;;;;;;;17.88;8.57;;;0.90;57.50;;;;;;5113201;28;20044;-80
2022/03/03 06:23:25;;;;;;;;;;;0.90;57.60;;;;;;5113429;28;20070;-81
2022/03/03 06:26:02;;;;;;;27.52;8.50;;;1.00;57.50;;;;;;5112667;28;19907;-79
2022/03/03 06:28:29;;;;;;;17.23;7.85;;;1.00;57.70;;;;;;5094271;28;20023;-80
2022/03/03 06:30:57;;;;;;;25.80;7.82;;;1.00;57.70;;;;;;5112494;28;20455;-80
2022/03/03 06:33:25;;;;;;;19.00;8.13;;;1.00;57.80;;;;;;5112916;28;20020;-80
2022/03/03 06:35:51;;;;;;;30.85;9.15;;;1.10;57.90;;;;;;5112634;28;20027;-80
2022/03/03 06:38:17;;;;;;;21.50;8.85;;;1.10;57.90;;;;;;5094117;28;20028;-81
2022/03/03 06:40:43;;;;;;;23.92;8.63;;;1.20;57.80;;;;;;5112823;28;20396;-79
2022/03/03 06:43:09;;;;;;;17.00;7.30;;;1.20;57.80;;;;;;5112975;28;20047;-82
2022/03/03 06:45:34;;;;;;;10.85;7.85;;;1.30;57.70;;;;;;5113004;28;20058;-79
2022/03/03 06:48:04;;;;;;;19.17;7.85;;;1.30;57.60;;;;;;5112557;28;20028;-80
2022/03/03 06:50:30;;;;;;;18.33;7.53;;;1.40;57.70;;;;;;5112495;28;20117;-81
2022/03/03 06:52:56;;;;;;;16.33;7.30;;;1.40;57.70;;;;;;5112680;28;20094;-80
2022/03/03 06:55:24;;;;;;;22.67;8.35;;;1.40;57.60;;;;;;5105347;28;20553;-79
2022/03/03 06:57:54;;;;;;;16.27;7.63;;;1.50;57.70;;;;;;5091717;28;20427;-80
2022/03/03 07:00:22;;;;;;;19.60;8.43;;;1.50;57.80;;;;;;5092076;28;20035;-80
2022/03/03 07:02:48;;;;;;;15.55;7.78;;;1.60;57.90;;;;;;5095482;28;20046;-79
2022/03/03 07:05:15;;;;;;;23.50;8.27;;;1.60;57.80;;;;;;5096538;28;20024;-78
2022/03/03 07:07:43;;;;;;;19.60;7.93;;;1.70;57.80;;;;;;5091443;28;20031;-80
2022/03/03 07:10:11;;;;;;;15.80;7.15;;;1.70;57.80;;;;;;5091488;28;20028;-79
2022/03/03 07:12:37;;;;;;;14.48;7.18;;;1.80;57.60;;;;;;5103544;28;20118;-81
2022/03/03 07:15:03;;;;;;;23.38;9.18;;;1.80;57.30;;;;;;5092991;28;20151;-80
2022/03/03 07:17:45;;;;;;;18.10;8.20;;;1.90;57.20;;;;;;5094535;28;20024;-81
2022/03/03 07:20:24;;;;;;;21.13;7.43;;;2.00;57.00;;;;;;5091262;28;20042;-78
2022/03/03 07:23:07;;;;;;;17.60;8.52;;;2.10;56.80;;;;;;5073557;28;20028;-80
2022/03/03 07:25:47;;;;;;;26.27;9.00;;;2.20;56.80;;;;;;5112206;28;20015;-80
2022/03/03 07:28:14;;;;;;;16.88;7.97;;;2.30;56.80;;;;;;5112094;28;20037;-79
2022/03/03 07:30:41;;;;;;;;;;;2.40;56.70;;;;;;5112362;28;20024;-79
2022/03/03 07:33:22;;;;;;;17.80;8.32;;;2.50;56.50;;;;;;5095894;28;19907;-80
2022/03/03 07:35:50;;;;;;;19.95;8.45;;;2.50;56.10;;;;;;5115542;28;20027;-79
2022/03/03 07:38:19;;;;;;;21.42;9.45;;;2.70;56.20;;;;;;5116276;28;20399;-79
2022/03/03 07:40:48;;;;;;;22.77;8.60;;;2.80;56.20;;;;;;5116406;28;20020;-80
2022/03/03 07:43:16;;;;;;;19.30;9.10;;;3.70;56.70;;;;;;5116080;28;20031;-77
2022/03/03 07:45:43;;;;;;;21.80;8.07;;;5.30;55.20;;;;;;5115985;28;20024;-80
2022/03/03 07:48:10;;;;;;;21.85;10.27;;;7.10;51.90;;;;;;5117742;28;20039;-80
2022/03/03 07:50:39;;;;;;;19.58;8.85;;;8.50;47.90;;;;;;5123931;28;20050;-78
2022/03/03 07:53:10;;;;;;;18.25;9.20;;;8.80;45.10;;;;;;5122559;28;20024;-83
2022/03/03 07:56:01;;;;;;;29.45;10.25;;;8.60;44.00;;;;;;5116824;28;20059;-79
2022/03/03 07:58:30;;;;;;;17.92;8.88;;;8.00;44.80;;;;;;5095613;28;20400;-79
2022/03/03 08:00:59;;;;;;;17.83;8.43;;;7.60;45.30;;;;;;5095702;28;20020;-80
2022/03/03 08:03:25;;;;;;;22.17;9.98;;;7.60;45.70;;;;;;5097273;28;20032;-79
2022/03/03 08:05:56;;;;;;;23.80;9.18;;;8.10;44.70;;;;;;5098094;28;20059;-80
2022/03/03 08:08:27;;;;;;;17.00;8.60;;;8.80;43.80;;;;;;5094825;28;20028;-81
2022/03/03 08:11:07;;;;;;;16.98;8.77;;;10.00;42.80;;;;;;5095061;28;20055;-82
2022/03/03 08:13:34;;;;;;;21.67;9.82;;;11.20;40.10;;;;;;5100461;28;20417;-80
2022/03/03 08:16:00;;;;;;;21.83;9.05;;;11.70;39.00;;;;;;5095737;28;20330;-81
2022/03/03 08:18:35;;;;;;;26.95;9.98;;;12.70;37.90;;;;;;5095083;28;20488;-81
2022/03/03 08:21:01;;;;;;;13.80;8.85;;;13.50;35.90;;;;;;5094741;28;20136;-80
2022/03/03 08:23:29;;;;;;;17.37;8.37;;;14.30;34.90;;;;;;5076624;28;20087;-82
2022/03/03 08:25:55;;;;;;;13.98;8.98;;;15.20;33.90;;;;;;5076877;28;20028;-80
2022/03/03 08:28:25;;;;;;;26.35;9.02;;;16.20;32.50;;;;;;5094753;28;20031;-82
2022/03/03 08:31:14;;;;;;;18.60;8.95;;;16.90;31.20;;;;;;5103820;28;20025;-81
2022/03/03 08:33:54;;;;;;;21.08;8.25;;;17.90;30.80;;;;;;5115070;28;20023;-80
2022/03/03 08:36:48;;;;;;;19.58;8.90;;;18.60;28.90;;;;;;5114878;28;20023;-81
2022/03/03 08:39:17;;;;;;;29.90;8.65;;;18.80;28.50;;;;;;5096526;28;20020;-81
2022/03/03 08:41:44;;;;;;;20.05;7.90;;;19.00;28.00;;;;;;5114933;28;20042;-80
2022/03/03 08:44:11;;;;;;;;;;;19.40;27.60;;;;;;5113734;28;20129;-79
2022/03/03 08:46:41;;;;;;;22.52;7.82;;;19.40;29.20;;;;;;5114674;28;19907;-81
2022/03/03 08:49:13;;;;;;;16.38;7.18;;;19.70;27.50;;;;;;5113451;28;20051;-82
2022/03/03 08:51:39;;;;;;;19.02;7.25;;;20.20;26.70;;;;;;5115072;28;20046;-80
2022/03/03 08:54:05;;;;;;;17.85;6.72;;;20.40;26.30;;;;;;5114808;28;20028;-82
2022/03/03 08:56:32;;;;;;;19.88;7.85;;;20.30;26.10;;;;;;5114879;28;20024;-81
2022/03/03 08:58:59;;;;;;;24.60;6.97;;;20.10;26.00;;;;;;5097142;28;20068;-80
2022/03/03 09:01:25;;;;;;;17.65;6.38;;;20.20;26.10;;;;;;5116108;28;20027;-80
2022/03/03 09:03:50;;;;;;;11.07;6.93;;;20.30;25.70;;;;;;5107024;28;20024;-81
2022/03/03 09:06:18;;;;;;;14.98;7.40;;;20.30;25.60;;;;;;5095145;28;20362;-81
2022/03/03 09:08:44;;;;;;;11.60;4.85;;;20.30;25.50;;;;;;5097498;28;20491;-82
2022/03/03 09:11:10;;;;;;;16.08;6.35;;;20.70;25.20;;;;;;5078889;28;20048;-81
2022/03/03 09:13:36;;;;;;;15.35;6.10;;;20.90;25.40;;;;;;5115463;28;20047;-80
2022/03/03 09:16:02;;;;;;;11.68;5.13;;;21.50;24.90;;;;;;5115960;28;20019;-80
2022/03/03 09:18:28;;;;;;;17.77;7.47;;;21.60;24.50;;;;;;5114554;28;20032;-79
2022/03/03 09:20:54;;;;;;;9.65;4.40;;;21.40;24.80;;;;;;5095692;28;20059;-82
2022/03/03 09:23:20;;;;;;;15.13;4.88;;;21.50;24.60;;;;;;5114188;28;20135;-80
2022/03/03 09:25:46;;;;;;;10.25;4.30;;;21.60;24.40;;;;;;5114353;28;20352;-81
2022/03/03 09:28:12;;;;;;;6.97;3.80;;;21.10;24.40;;;;;;5095710;28;20032;-81
2022/03/03 09:30:38;;;;;;;98.78;16.65;;;20.90;24.70;;;;;;5095325;28;20016;-82
2022/03/03 09:33:05;;;;;;;7.93;4.93;;;21.00;25.10;;;;;;5095813;28;20453;-81
2022/03/03 09:35:31;;;;;;;9.35;4.43;;;21.50;24.70;;;;;;5099263;28;20489;-80
2022/03/03 09:37:58;;;;;;;17.02;5.88;;;22.20;24.30;;;;;;5093421;28;20028;-83
2022/03/03 09:40:24;;;;;;;15.52;5.00;;;22.20;24.30;;;;;;5093460;28;20129;-80
2022/03/03 09:43:04;;;;;;;9.23;5.07;;;22.20;24.40;;;;;;5093398;28;20043;-81
2022/03/03 09:45:31;;;;;;;10.25;4.78;;;22.50;23.80;;;;;;5093149;28;20070;-79
2022/03/03 09:47:58;;;;;;;;;;;22.70;23.80;;;;;;5098780;28;20051;-81
2022/03/03 09:50:26;;;;;;;12.95;5.32;;;23.00;25.10;;;;;;5113406;28;19904;-82
2022/03/03 09:52:53;;;;;;;61.22;14.63;;;22.90;23.90;;;;;;5113653;28;20031;-80
2022/03/03 09:55:20;;;;;;;9.35;5.93;;;23.10;23.90;;;;;;5093821;28;20123;-81
2022/03/03 09:57:48;;;;;;;11.60;5.45;;;23.70;23.70;;;;;;5113296;28;20059;-81
2022/03/03 10:00:14;;;;;;;11.65;5.68;;;23.50;23.30;;;;;;5113761;28;20041;-81
2022/03/03 10:02:58;;;;;;;11.00;5.70;;;23.50;23.30;;;;;;5095804;28;20084;-81
2022/03/03 10:05:37;;;;;;;20.25;7.28;;;22.90;23.70;;;;;;5115285;28;20111;-81
2022/03/03 10:08:11;;;;;;;11.77;6.07;;;22.90;23.80;;;;;;5096425;28;20039;-80
2022/03/03 10:10:44;;;;;;;10.32;5.22;;;23.10;23.50;;;;;;5097267;28;20031;-83
2022/03/03 10:13:14;;;;;;;10.40;6.00;;;22.80;23.70;;;;;;5110294;28;20023;-80
2022/03/03 10:15:40;;;;;;;15.20;6.10;;;23.60;23.60;;;;;;5113589;28;20107;-79
2022/03/03 10:18:11;;;;;;;11.00;6.43;;;24.20;23.10;;;;;;5112719;28;20023;-80
2022/03/03 10:20:47;;;;;;;8.27;5.43;;;24.00;22.90;;;;;;5113221;28;20016;-82
2022/03/03 10:23:12;;;;;;;8.73;4.80;;;23.90;22.90;;;;;;5112653;28;20034;-80
2022/03/03 10:25:42;;;;;;;16.52;6.80;;;23.40;22.60;;;;;;5111583;28;20020;-80
2022/03/03 10:28:11;;;;;;;8.60;5.10;;;22.90;23.20;;;;;;5112429;28;20032;-79
2022/03/03 10:31:00;;;;;;;10.30;5.80;;;22.70;23.10;;;;;;5112209;28;20392;-81
2022/03/03 10:33:31;;;;;;;9.60;6.47;;;21.90;23.40;;;;;;5112631;28;20023;-80
2022/03/03 10:36:12;;;;;;;12.48;6.80;;;19.50;24.10;;;;;;5112656;28;20024;-81
2022/03/03 10:38:57;;;;;;;11.13;5.50;;;17.50;25.50;;;;;;5112566;28;20491;-81
2022/03/03 10:41:46;;;;;;;13.13;6.10;;;16.00;26.50;;;;;;5112637;28;20024;-80
2022/03/03 10:44:20;;;;;;;19.95;8.70;;;14.60;27.80;;;;;;5092198;28;20027;-80
2022/03/03 10:47:05;;;;;;;11.40;5.65;;;13.60;28.80;;;;;;5099584;28;20023;-80
2022/03/03 10:49:31;;;;;;;16.35;6.68;;;12.60;29.30;;;;;;5112670;28;20484;-79
2022/03/03 10:52:22;;;;;;;11.50;6.93;;;11.80;29.90;;;;;;5097395;28;20028;-81
2022/03/03 10:54:58;;;;;;;10.55;6.32;;;11.10;30.80;;;;;;5092698;28;20108;-80
2022/03/03 10:57:39;;;;;;;15.50;7.25;;;10.30;32.00;;;;;;5096151;28;20055;-79
2022/03/03 11:00:13;;;;;;;10.02;6.70;;;9.70;33.30;;;;;;5095068;28;20020;-79
2022/03/03 11:02:43;;;;;;;9.93;6.20;;;9.50;33.70;;;;;;5073742;28;20032;-83
2022/03/03 11:05:11;;;;;;;11.90;7.45;;;9.30;34.30;;;;;;5092203;28;20047;-81
2022/03/03 11:07:41;;;;;;;9.30;6.13;;;9.10;34.90;;;;;;5097048;28;20389;-79
2022/03/03 11:10:08;;;;;;;14.32;6.85;;;8.90;35.30;;;;;;5098402;28;20032;-81
2022/03/03 11:12:34;;;;;;;12.90;6.32;;;8.80;35.10;;;;;;5116339;28;20105;-79
2022/03/03 11:15:00;;;;;;;13.40;7.13;;;8.60;35.40;;;;;;5116525;28;20020;-80
2022/03/03 11:17:26;;;;;;;14.77;7.10;;;8.50;35.80;;;;;;5098495;28;20139;-82
2022/03/03 11:19:55;;;;;;;10.00;6.05;;;8.40;36.30;;;;;;5098555;28;20026;-79
2022/03/03 11:22:21;;;;;;;13.20;7.30;;;8.30;36.30;;;;;;5116476;28;20031;-79
2022/03/03 11:24:49;;;;;;;12.07;6.55;;;8.30;36.60;;;;;;5116530;28;20400;-80
2022/03/03 11:27:15;;;;;;;;;;;8.30;37.20;;;;;;5118212;28;20059;-78
2022/03/03 11:29:41;;;;;;;12.40;5.72;;;8.40;36.20;;;;;;5097893;28;19942;-80
2022/03/03 11:32:12;;;;;;;8.15;5.78;;;8.40;36.60;;;;;;5116214;28;20433;-79
2022/03/03 11:34:37;;;;;;;15.95;6.85;;;8.30;36.90;;;;;;5117975;28;20106;-78
2022/03/03 11:37:20;;;;;;;11.00;6.03;;;8.20;37.00;;;;;;5118586;28;20088;-79
2022/03/03 11:39:48;;;;;;;17.20;7.75;;;8.20;37.10;;;;;;5117799;28;20384;-80
2022/03/03 11:42:47;;;;;;;17.23;10.23;;;8.10;37.30;;;;;;5108838;28;20043;-82
2022/03/03 11:45:13;;;;;;;10.77;7.72;;;8.10;37.40;;;;;;5101118;28;20015;-79
2022/03/03 11:47:47;;;;;;;15.07;8.35;;;8.00;37.50;;;;;;5116356;28;20027;-80
2022/03/03 11:50:25;;;;;;;14.52;6.32;;;7.90;38.00;;;;;;5115928;28;20186;-79
2022/03/03 11:52:57;;;;;;;12.68;6.47;;;7.90;38.20;;;;;;5115695;28;20015;-78
2022/03/03 11:55:26;;;;;;;19.75;7.82;;;7.80;38.20;;;;;;5116012;28;20421;-79
2022/03/03 11:58:12;;;;;;;11.98;6.93;;;7.80;38.40;;;;;;5104345;28;20036;-78
2022/03/03 12:01:05;;;;;;;11.95;6.82;;;7.80;38.30;;;;;;5095287;28;20031;-82
2022/03/03 12:03:33;;;;;;;19.98;7.95;;;7.70;38.60;;;;;;5094593;28;20420;-81
2022/03/03 12:06:08;;;;;;;16.70;8.15;;;7.70;38.80;;;;;;5094945;28;20016;-79
2022/03/03 12:08:39;;;;;;;17.60;7.72;;;7.70;39.10;;;;;;5076623;28;20028;-79
2022/03/03 12:11:14;;;;;;;14.93;8.20;;;7.60;39.30;;;;;;5094752;28;20085;-81
2022/03/03 12:13:40;;;;;;;16.02;8.00;;;7.60;39.30;;;;;;5094871;28;20045;-81
2022/03/03 12:16:13;;;;;;;14.82;7.50;;;7.60;39.50;;;;;;5094949;28;20160;-80
2022/03/03 12:18:39;;;;;;;19.88;8.90;;;7.50;39.70;;;;;;5096709;28;20050;-80
2022/03/03 12:21:33;;;;;;;11.98;8.15;;;7.40;39.90;;;;;;5096146;28;20433;-82
2022/03/03 12:24:14;;;;;;;16.25;8.35;;;7.40;40.40;;;;;;5076441;28;20028;-80
2022/03/03 12:27:02;;;;;;;12.75;6.82;;;7.40;40.30;;;;;;5095254;28;20472;-79
2022/03/03 12:29:34;;;;;;;13.93;8.10;;;7.40;40.20;;;;;;5077472;28;20020;-79
2022/03/03 12:32:21;;;;;;;13.30;7.18;;;7.40;40.20;;;;;;5107866;28;20024;-80
2022/03/03 12:34:57;;;;;;;12.48;7.97;;;7.40;40.30;;;;;;5114977;28;20383;-81
2022/03/03 12:37:22;;;;;;;18.88;8.30;;;7.30;40.20;;;;;;5114947;28;20511;-81
2022/03/03 12:39:55;;;;;;;14.85;8.50;;;7.30;40.30;;;;;;5114806;28;20055;-77
2022/03/03 12:42:23;;;;;;;12.80;7.22;;;7.30;40.50;;;;;;5114621;28;20175;-80
2022/03/03 12:44:53;;;;;;;13.02;7.38;;;7.30;40.20;;;;;;5114777;28;20433;-79
2022/03/03 12:47:34;;;;;;;12.52;7.25;;;7.30;40.10;;;;;;5114718;28;20537;-80
2022/03/03 12:50:08;;;;;;;14.48;8.80;;;7.30;40.10;;;;;;5097910;28;20115;-81
2022/03/03 12:52:35;;;;;;;14.00;8.88;;;7.30;40.40;;;;;;5113775;28;20388;-80
2022/03/03 12:55:01;;;;;;;10.93;8.35;;;7.50;40.40;;;;;;5114541;28;20031;-80